Time;durP1;ratioP1;P1;durP2;ratioP2;P2;SDS_P1;SDS_P2;PMS_P1;PMS_P2;Temp;Humidity;BMP_temperature;BMP_pressure;BME280_temperature;BME280_humidity;BME280_pressure;Samples;Min_cycle;Max_cycle;Signal;HPM_P1;HPM_P2
2024/04/19 00:02:46;;;;;;;78.40;48.80;;;;;3.70;96627.00;;;;5434802;26;20823;-67
2024/04/19 00:05:41;;;;;;;87.80;53.40;;;;;3.80;96635.00;;;;5441519;26;20535;-67
2024/04/19 00:08:30;;;;;;;79.10;50.80;;;;;3.50;96633.00;;;;5441282;26;20469;-67
2024/04/19 00:11:21;;;;;;;79.73;50.17;;;;;3.60;96634.00;;;;5442533;26;20517;-67
2024/04/19 00:14:12;;;;;;;66.83;45.47;;;;;3.50;96641.00;;;;5439277;26;20469;-67
2024/04/19 00:17:03;;;;;;;66.80;45.77;;;;;3.60;96646.00;;;;5445989;26;20470;-67
2024/04/19 00:19:54;;;;;;;68.27;46.17;;;;;3.50;96648.00;;;;5439033;26;20533;-67
2024/04/19 00:22:44;;;;;;;64.37;44.90;;;;;3.20;96638.00;;;;5444318;26;20466;-67
2024/04/19 00:25:36;;;;;;;73.97;49.27;;;;;3.20;96649.00;;;;5433441;26;20514;-68
2024/04/19 00:28:25;;;;;;;73.97;49.27;;;;;3.30;96653.00;;;;5431551;26;20509;-67
2024/04/19 00:31:16;;;;;;;63.07;45.37;;;;;3.40;96652.00;;;;5441737;26;20518;-67
2024/04/19 00:34:10;;;;;;;64.03;44.23;;;;;3.60;96656.00;;;;5445645;26;20529;-67
2024/04/19 00:36:58;;;;;;;65.07;45.10;;;;;3.00;96660.00;;;;5445320;26;20442;-67
2024/04/19 00:39:49;;;;;;;64.73;45.73;;;;;2.90;96665.00;;;;5440800;26;20450;-67
2024/04/19 00:42:40;;;;;;;66.13;46.57;;;;;2.30;96658.00;;;;5442243;26;20541;-68
2024/04/19 00:45:32;;;;;;;69.33;47.63;;;;;3.10;96679.00;;;;5443259;26;20462;-67
2024/04/19 00:48:24;;;;;;;61.83;43.67;;;;;3.50;96678.00;;;;5442373;26;20450;-67
2024/04/19 00:51:15;;;;;;;64.03;44.50;;;;;3.40;96681.00;;;;5446697;26;20458;-67
2024/04/19 00:54:06;;;;;;;64.23;44.93;;;;;3.80;96685.00;;;;5447668;26;20509;-67
2024/04/19 00:56:55;;;;;;;64.63;45.07;;;;;3.60;96672.00;;;;5447707;26;20458;-67
2024/04/19 00:59:47;;;;;;;69.50;47.73;;;;;2.80;96672.00;;;;5446095;26;20454;-66
2024/04/19 01:02:36;;;;;;;64.97;45.53;;;;;3.20;96662.00;;;;5446304;26;20455;-67
2024/04/19 01:05:28;;;;;;;63.40;46.90;;;;;3.00;96659.00;;;;5434584;26;20999;-66
2024/04/19 01:08:21;;;;;;;57.10;43.43;;;;;2.70;96655.00;;;;5430737;26;20533;-67
2024/04/19 01:11:09;;;;;;;52.87;41.53;;;;;2.20;96662.00;;;;5437254;26;21398;-67
2024/04/19 01:14:00;;;;;;;50.37;40.57;;;;;1.90;96654.00;;;;5444419;26;20446;-67
2024/04/19 01:16:48;;;;;;;57.87;42.03;;;;;2.60;96655.00;;;;5435798;26;21274;-67
2024/04/19 01:19:39;;;;;;;60.13;43.87;;;;;2.60;96663.00;;;;5441937;26;20510;-68
2024/04/19 01:22:28;;;;;;;58.87;43.27;;;;;2.30;96656.00;;;;5447018;26;20450;-67
2024/04/19 01:25:28;;;;;;;51.10;40.73;;;;;2.20;96646.00;;;;5440409;26;20454;-67
2024/04/19 01:28:22;;;;;;;51.27;40.13;;;;;2.40;96651.00;;;;5434837;26;20517;-66
2024/04/19 01:31:10;;;;;;;57.17;42.30;;;;;2.30;96656.00;;;;5438784;26;20439;-67
2024/04/19 01:34:02;;;;;;;53.20;39.53;;;;;1.80;96642.00;;;;5446220;26;20506;-67
2024/04/19 01:36:50;;;;;;;57.83;42.93;;;;;2.30;96659.00;;;;5439522;26;20539;-67
2024/04/19 01:39:41;;;;;;;66.90;44.87;;;;;2.80;96653.00;;;;5445978;26;20462;-67
2024/04/19 01:42:30;;;;;;;67.33;45.73;;;;;2.90;96657.00;;;;5434266;26;20457;-67
2024/04/19 01:45:23;;;;;;;63.03;43.10;;;;;2.70;96651.00;;;;5445264;26;21247;-67
2024/04/19 01:48:12;;;;;;;59.27;42.00;;;;;2.00;96648.00;;;;5434656;26;20450;-66
2024/04/19 01:51:02;;;;;;;58.77;41.83;;;;;2.10;96658.00;;;;5436373;26;20532;-66
2024/04/19 01:53:51;;;;;;;63.77;43.33;;;;;2.60;96671.00;;;;5436828;26;20518;-66
2024/04/19 01:56:41;;;;;;;71.17;45.97;;;;;2.20;96665.00;;;;5442344;26;20450;-67
2024/04/19 01:59:30;;;;;;;61.57;42.63;;;;;2.50;96656.00;;;;5439283;26;20450;-67
2024/04/19 02:02:24;;;;;;;63.00;44.13;;;;;2.70;96666.00;;;;5440320;26;20869;-67
2024/04/19 02:05:15;;;;;;;62.00;42.13;;;;;2.40;96674.00;;;;5432961;26;20518;-67
2024/04/19 02:08:04;;;;;;;64.80;44.07;;;;;2.50;96685.00;;;;5439564;26;20507;-66
2024/04/19 02:10:55;;;;;;;65.03;43.73;;;;;2.80;96661.00;;;;5443520;26;21081;-66
2024/04/19 02:13:43;;;;;;;64.63;43.50;;;;;2.60;96669.00;;;;5442144;26;20510;-66
2024/04/19 02:16:35;;;;;;;69.50;47.00;;;;;2.20;96658.00;;;;5440044;26;20489;-67
2024/04/19 02:19:26;;;;;;;67.87;46.27;;;;;2.20;96673.00;;;;5439497;26;20522;-67
2024/04/19 02:22:17;;;;;;;63.43;43.77;;;;;2.30;96669.00;;;;5448592;26;20470;-66
2024/04/19 02:25:06;;;;;;;67.60;44.60;;;;;2.70;96662.00;;;;5445269;26;20548;-67
2024/04/19 02:31:04;;;;;;;67.63;45.30;;;;;2.70;96665.00;;;;5439361;26;20458;-66
2024/04/19 02:33:55;;;;;;;67.37;43.93;;;;;2.60;96661.00;;;;5435860;26;20455;-66
2024/04/19 02:36:48;;;;;;;65.63;43.27;;;;;2.40;96656.00;;;;5438244;26;21163;-66
2024/04/19 02:39:39;;;;;;;74.47;47.97;;;;;1.80;96653.00;;;;5444914;26;20869;-66
2024/04/19 02:42:30;;;;;;;72.97;49.13;;;;;1.10;96641.00;;;;5443296;26;21112;-66
2024/04/19 02:45:21;;;;;;;63.60;42.77;;;;;1.50;96647.00;;;;5433689;26;20514;-66
2024/04/19 02:48:12;;;;;;;63.33;42.47;;;;;2.20;96650.00;;;;5442944;26;20450;-67
2024/04/19 02:51:05;;;;;;;60.10;40.67;;;;;2.60;96661.00;;;;5432588;26;20542;-66
2024/04/19 02:53:58;;;;;;;67.43;43.97;;;;;1.70;96655.00;;;;5446031;26;20458;-66
2024/04/19 02:56:49;;;;;;;62.63;44.10;;;;;1.20;96649.00;;;;5435989;26;20511;-66
2024/04/19 02:59:40;;;;;;;64.43;44.83;;;;;1.30;96648.00;;;;5438893;26;20454;-67
2024/04/19 03:02:30;;;;;;;70.47;47.73;;;;;2.10;96651.00;;;;5438020;26;20454;-67
2024/04/19 03:05:21;;;;;;;60.50;41.63;;;;;2.20;96637.00;;;;5426270;26;20513;-66
2024/04/19 03:08:12;;;;;;;67.63;44.40;;;;;1.60;96636.00;;;;5427600;26;20551;-66
2024/04/19 03:11:07;;;;;;;63.43;43.47;;;;;0.70;96644.00;;;;5441687;26;20455;-67
2024/04/19 03:13:58;;;;;;;61.23;41.57;;;;;1.40;96639.00;;;;5438005;26;21357;-67
2024/04/19 03:16:49;;;;;;;69.13;44.47;;;;;1.20;96642.00;;;;5438722;26;20454;-67
2024/04/19 03:19:40;;;;;;;74.23;47.30;;;;;2.10;96640.00;;;;5443749;26;20514;-67
2024/04/19 03:22:31;;;;;;;74.80;47.67;;;;;2.40;96646.00;;;;5435858;26;20496;-67
2024/04/19 03:25:22;;;;;;;75.03;45.20;;;;;2.40;96659.00;;;;5436567;26;20555;-67
2024/04/19 03:28:15;;;;;;;74.13;45.50;;;;;2.10;96637.00;;;;5430964;26;21529;-66
2024/04/19 03:31:10;;;;;;;78.93;45.93;;;;;2.30;96633.00;;;;5434007;26;20506;-66
2024/04/19 03:34:00;;;;;;;88.63;49.87;;;;;2.70;96649.00;;;;5444567;26;21081;-68
2024/04/19 03:36:51;;;;;;;140.70;66.03;;;;;2.20;96643.00;;;;5429482;26;20539;-67
2024/04/19 03:39:42;;;;;;;148.93;65.10;;;;;1.80;96644.00;;;;5445611;26;20501;-68
2024/04/19 03:42:44;;;;;;;160.90;69.43;;;;;2.30;96653.00;;;;5444007;26;20454;-67
2024/04/19 03:45:41;;;;;;;99.47;53.33;;;;;2.20;96643.00;;;;5440251;26;20454;-67
2024/04/19 03:48:32;;;;;;;172.03;67.03;;;;;2.40;96653.00;;;;5437553;26;20454;-67
2024/04/19 03:51:23;;;;;;;88.77;49.67;;;;;2.20;96643.00;;;;5436527;26;20446;-67
2024/04/19 03:54:14;;;;;;;158.10;67.53;;;;;2.10;96646.00;;;;5441295;26;20907;-68
2024/04/19 03:57:05;;;;;;;41.90;36.17;;;;;1.80;96641.00;;;;5446532;26;20450;-67
2024/04/19 03:59:55;;;;;;;47.10;38.80;;;;;2.30;96647.00;;;;5445387;26;20509;-67
2024/04/19 04:02:49;;;;;;;45.63;37.27;;;;;2.40;96650.00;;;;5447586;26;20498;-67
2024/04/19 04:05:40;;;;;;;50.53;39.07;;;;;2.60;96654.00;;;;5443286;26;20522;-66
2024/04/19 04:08:31;;;;;;;56.23;41.90;;;;;2.30;96656.00;;;;5434469;26;20486;-67
2024/04/19 04:11:22;;;;;;;61.07;43.27;;;;;2.60;96645.00;;;;5431762;26;20457;-66
2024/04/19 04:14:13;;;;;;;60.70;41.63;;;;;3.00;96661.00;;;;5429057;26;20521;-67
2024/04/19 04:17:04;;;;;;;61.67;41.97;;;;;3.00;96659.00;;;;5446943;26;20506;-66
2024/04/19 04:19:57;;;;;;;69.00;45.63;;;;;2.80;96648.00;;;;5441166;26;20815;-66
2024/04/19 04:22:48;;;;;;;63.50;43.10;;;;;3.00;96655.00;;;;5446702;26;21085;-67
2024/04/19 04:25:39;;;;;;;74.03;48.77;;;;;3.10;96646.00;;;;5437746;26;20502;-67
2024/04/19 04:28:30;;;;;;;73.33;49.47;;;;;2.60;96643.00;;;;5431405;26;20458;-66
2024/04/19 04:31:21;;;;;;;69.07;46.67;;;;;2.80;96650.00;;;;5445470;26;20521;-66
2024/04/19 04:34:12;;;;;;;63.33;42.77;;;;;2.70;96655.00;;;;5441336;26;20513;-66
2024/04/19 04:37:05;;;;;;;66.07;44.67;;;;;2.20;96646.00;;;;5434330;26;20452;-67
2024/04/19 04:39:56;;;;;;;72.83;47.20;;;;;2.40;96655.00;;;;5441527;26;20462;-67
2024/04/19 04:42:47;;;;;;;67.43;43.87;;;;;2.30;96644.00;;;;5441428;26;20514;-67
2024/04/19 04:45:38;;;;;;;73.40;48.47;;;;;2.00;96634.00;;;;5439220;26;20539;-67
2024/04/19 04:48:29;;;;;;;80.10;50.30;;;;;2.30;96649.00;;;;5441437;26;20506;-67
2024/04/19 04:51:20;;;;;;;73.67;45.03;;;;;2.20;96642.00;;;;5442315;26;20544;-66
2024/04/19 04:54:13;;;;;;;79.67;49.97;;;;;2.10;96649.00;;;;5447223;26;20525;-66
2024/04/19 04:57:07;;;;;;;79.87;46.90;;;;;2.70;96654.00;;;;5442929;26;20514;-66
2024/04/19 04:59:58;;;;;;;85.30;49.70;;;;;2.90;96649.00;;;;5437902;26;20455;-66
2024/04/19 05:02:49;;;;;;;91.80;51.33;;;;;2.90;96647.00;;;;5440447;26;20458;-66
2024/04/19 05:05:40;;;;;;;105.97;57.73;;;;;2.70;96647.00;;;;5442727;26;20533;-66
2024/04/19 05:08:31;;;;;;;112.27;57.27;;;;;2.50;96649.00;;;;5437163;26;20535;-66
2024/04/19 05:11:24;;;;;;;138.07;60.27;;;;;2.20;96640.00;;;;5441831;26;20522;-67
2024/04/19 05:14:15;;;;;;;215.83;77.20;;;;;2.40;96648.00;;;;5430958;26;20519;-67
2024/04/19 05:17:06;;;;;;;204.73;76.47;;;;;2.20;96639.00;;;;5442931;26;20454;-67
2024/04/19 05:19:57;;;;;;;80.30;48.70;;;;;2.50;96650.00;;;;5439598;26;20543;-67
2024/04/19 05:22:48;;;;;;;80.50;48.50;;;;;2.70;96641.00;;;;5445822;26;20458;-67
2024/04/19 05:25:39;;;;;;;80.97;49.03;;;;;3.60;96656.00;;;;5446684;26;20822;-66
2024/04/19 05:28:34;;;;;;;82.87;49.87;;;;;4.00;96655.00;;;;5442472;26;21069;-68
2024/04/19 05:31:25;;;;;;;84.90;50.60;;;;;3.80;96657.00;;;;5442544;26;20539;-66
2024/04/19 05:34:16;;;;;;;87.20;51.27;;;;;3.60;96650.00;;;;5441875;26;20521;-67
2024/04/19 05:37:07;;;;;;;82.30;50.37;;;;;3.90;96654.00;;;;5433387;26;20458;-67
2024/04/19 05:39:58;;;;;;;78.53;49.67;;;;;4.00;96652.00;;;;5442323;26;20967;-66
2024/04/19 05:42:50;;;;;;;79.73;50.33;;;;;4.60;96662.00;;;;5431925;26;20498;-67
2024/04/19 05:45:43;;;;;;;94.70;56.37;;;;;5.20;96664.00;;;;5441145;26;20454;-68
2024/04/19 05:48:34;;;;;;;96.03;56.53;;;;;5.40;96653.00;;;;5430642;26;20454;-68
2024/04/19 05:51:25;;;;;;;97.13;56.33;;;;;5.10;96661.00;;;;5434116;26;20462;-67
2024/04/19 05:54:16;;;;;;;99.30;55.63;;;;;5.00;96650.00;;;;5433932;26;20465;-69
2024/04/19 05:57:07;;;;;;;107.23;59.27;;;;;4.40;96645.00;;;;5445881;26;20545;-68
2024/04/19 05:59:58;;;;;;;105.77;58.27;;;;;4.80;96641.00;;;;5436024;26;20460;-69
2024/04/19 06:02:52;;;;;;;109.67;58.10;;;;;5.30;96658.00;;;;5437997;26;20517;-69
2024/04/19 06:05:42;;;;;;;130.30;68.67;;;;;5.60;96663.00;;;;5438210;26;20506;-69
2024/04/19 06:08:33;;;;;;;132.03;66.63;;;;;6.00;96655.00;;;;5446669;26;21048;-70
2024/04/19 06:11:24;;;;;;;145.90;69.17;;;;;6.40;96659.00;;;;5447283;26;20517;-70
2024/04/19 06:14:16;;;;;;;155.63;71.63;;;;;6.90;96668.00;;;;5447856;26;20537;-69
2024/04/19 06:17:07;;;;;;;171.37;73.97;;;;;6.80;96668.00;;;;5447238;26;20462;-69
2024/04/19 06:20:01;;;;;;;180.63;74.37;;;;;6.80;96668.00;;;;5437885;26;20517;-69
2024/04/19 06:22:52;;;;;;;214.00;80.50;;;;;6.90;96662.00;;;;5442624;26;20548;-70
2024/04/19 06:25:43;;;;;;;222.63;78.80;;;;;6.90;96661.00;;;;5442885;26;21006;-70
2024/04/19 06:28:34;;;;;;;300.03;90.87;;;;;7.60;96660.00;;;;5437757;26;20457;-69
2024/04/19 06:31:25;;;;;;;317.73;93.23;;;;;8.10;96653.00;;;;5439485;26;20466;-69
2024/04/19 06:34:16;;;;;;;314.80;93.50;;;;;8.40;96655.00;;;;5442459;26;20466;-69
2024/04/19 06:37:10;;;;;;;342.23;103.23;;;;;8.60;96641.00;;;;5441760;26;20516;-69
2024/04/19 06:40:01;;;;;;;316.73;85.03;;;;;8.80;96651.00;;;;5441238;26;20509;-69
2024/04/19 06:42:54;;;;;;;324.30;85.30;;;;;9.20;96646.00;;;;5442061;26;20604;-69
2024/04/19 06:45:45;;;;;;;345.93;94.23;;;;;8.60;96648.00;;;;5439442;26;20295;-69
2024/04/19 06:48:36;;;;;;;347.13;94.10;;;;;9.00;96656.00;;;;5440349;26;21063;-69
2024/04/19 06:51:27;;;;;;;346.20;92.50;;;;;8.50;96649.00;;;;5443847;26;20569;-69
2024/04/19 06:54:20;;;;;;;354.10;105.30;;;;;8.80;96651.00;;;;5436672;26;20512;-69
2024/04/19 06:57:11;;;;;;;340.43;87.97;;;;;8.90;96651.00;;;;5440239;26;20542;-69
2024/04/19 07:00:02;;;;;;;343.80;89.73;;;;;9.40;96650.00;;;;5442690;26;20446;-69
2024/04/19 07:02:55;;;;;;;346.57;93.33;;;;;9.70;96644.00;;;;5444454;26;20522;-69
2024/04/19 07:05:48;;;;;;;318.17;87.47;;;;;10.00;96654.00;;;;5453148;26;20547;-69
2024/04/19 07:08:39;;;;;;;316.07;108.73;;;;;10.00;96640.00;;;;5440156;26;21034;-69
2024/04/19 07:11:33;;;;;;;341.80;102.87;;;;;10.30;96653.00;;;;5432635;26;20233;-70
2024/04/19 07:14:24;;;;;;;335.73;98.30;;;;;10.40;96647.00;;;;5444838;26;20789;-70
2024/04/19 07:17:15;;;;;;;342.87;95.47;;;;;10.40;96652.00;;;;5442088;26;20610;-69
2024/04/19 07:20:06;;;;;;;311.80;95.63;;;;;10.60;96648.00;;;;5442401;26;20240;-69
2024/04/19 07:22:57;;;;;;;315.00;114.50;;;;;10.90;96638.00;;;;5441677;26;20249;-69
2024/04/19 07:25:48;;;;;;;306.23;99.90;;;;;11.20;96641.00;;;;5439098;26;20765;-69
2024/04/19 07:28:42;;;;;;;338.73;106.00;;;;;11.30;96638.00;;;;5440455;26;20300;-69
2024/04/19 07:31:33;;;;;;;350.47;103.53;;;;;11.20;96643.00;;;;5445262;26;20291;-69
2024/04/19 07:34:25;;;;;;;259.07;102.80;;;;;11.60;96644.00;;;;5436347;26;20238;-69
2024/04/19 07:37:16;;;;;;;261.23;105.77;;;;;11.70;96643.00;;;;5436932;26;20236;-69
2024/04/19 07:40:08;;;;;;;263.23;106.00;;;;;11.30;96644.00;;;;5442279;26;20278;-69
2024/04/19 07:42:59;;;;;;;255.00;109.50;;;;;11.60;96646.00;;;;5433048;26;20233;-69
2024/04/19 07:45:53;;;;;;;248.93;108.13;;;;;12.10;96648.00;;;;5439899;26;20304;-69
2024/04/19 07:48:44;;;;;;;244.70;110.07;;;;;12.60;96641.00;;;;5443973;26;20366;-69
2024/04/19 07:51:35;;;;;;;251.43;114.30;;;;;12.70;96638.00;;;;5447565;26;20228;-69
2024/04/19 07:54:26;;;;;;;248.37;114.63;;;;;12.70;96639.00;;;;5445753;26;20237;-69
2024/04/19 07:57:17;;;;;;;242.57;115.73;;;;;12.60;96633.00;;;;5439701;26;20221;-69
2024/04/19 08:00:15;;;;;;;239.03;114.63;;;;;12.40;96626.00;;;;5439459;26;20312;-69
2024/04/19 08:03:08;;;;;;;232.90;116.17;;;;;12.70;96618.00;;;;5440425;26;20300;-69
2024/04/19 08:05:59;;;;;;;231.23;117.67;;;;;13.30;96618.00;;;;5447946;26;20237;-69
2024/04/19 08:08:53;;;;;;;233.50;118.23;;;;;13.20;96619.00;;;;5444947;26;20275;-69
2024/04/19 08:11:43;;;;;;;238.50;124.20;;;;;13.20;96616.00;;;;5438302;26;20236;-69
2024/04/19 08:14:35;;;;;;;233.20;120.20;;;;;12.70;96622.00;;;;5432327;26;20361;-69
2024/04/19 08:17:26;;;;;;;208.60;114.97;;;;;13.50;96620.00;;;;5447556;26;20772;-69
2024/04/19 08:20:20;;;;;;;202.30;113.97;;;;;13.60;96631.00;;;;5451018;26;21149;-69
2024/04/19 08:23:11;;;;;;;210.57;119.77;;;;;13.70;96636.00;;;;5432777;26;20705;-69
2024/04/19 08:26:03;;;;;;;210.37;120.13;;;;;13.80;96623.00;;;;5443390;26;20237;-69
2024/04/19 08:28:53;;;;;;;208.10;120.63;;;;;13.60;96630.00;;;;5442309;26;20718;-69
2024/04/19 08:31:45;;;;;;;217.77;129.40;;;;;13.80;96620.00;;;;5442298;26;20291;-69
2024/04/19 08:34:36;;;;;;;203.33;122.73;;;;;13.70;96627.00;;;;5444892;26;20310;-69
2024/04/19 08:37:31;;;;;;;197.83;118.17;;;;;13.60;96621.00;;;;5446049;26;21235;-69
2024/04/19 08:40:23;;;;;;;205.40;123.80;;;;;13.80;96616.00;;;;5435478;26;20667;-69
2024/04/19 08:43:17;;;;;;;205.83;119.80;;;;;13.60;96613.00;;;;5439698;26;20229;-70
2024/04/19 08:46:08;;;;;;;194.53;120.80;;;;;13.60;96616.00;;;;5442805;26;20300;-69
2024/04/19 08:48:59;;;;;;;212.53;129.73;;;;;13.80;96617.00;;;;5443457;26;20232;-69
2024/04/19 08:51:50;;;;;;;201.77;121.97;;;;;13.80;96605.00;;;;5441914;26;20298;-69
2024/04/19 08:54:48;;;;;;;202.43;122.80;;;;;13.90;96597.00;;;;5444984;26;20228;-69
2024/04/19 08:57:39;;;;;;;215.43;132.07;;;;;13.60;96601.00;;;;5449475;26;20837;-70
2024/04/19 09:00:30;;;;;;;191.43;118.37;;;;;13.80;96596.00;;;;5458346;26;20333;-69
2024/04/19 09:03:21;;;;;;;205.73;125.60;;;;;14.20;96588.00;;;;5440569;26;20266;-69
2024/04/19 09:06:13;;;;;;;203.10;124.73;;;;;14.50;96590.00;;;;5443690;26;20283;-70
2024/04/19 09:09:04;;;;;;;202.87;118.63;;;;;14.60;96596.00;;;;5449039;26;20279;-70
2024/04/19 09:11:58;;;;;;;219.67;131.03;;;;;14.60;96596.00;;;;5440118;26;20293;-69
2024/04/19 09:14:51;;;;;;;229.93;137.20;;;;;15.00;96588.00;;;;5437850;26;20245;-70
2024/04/19 09:17:42;;;;;;;230.70;144.37;;;;;15.10;96582.00;;;;5439794;26;20292;-69
2024/04/19 09:20:33;;;;;;;221.33;135.63;;;;;15.60;96583.00;;;;5438356;26;20317;-69
2024/04/19 09:23:24;;;;;;;220.43;135.43;;;;;15.30;96582.00;;;;5447350;26;20284;-70
2024/04/19 09:26:15;;;;;;;232.47;143.03;;;;;15.70;96565.00;;;;5434639;26;20284;-70
2024/04/19 09:29:08;;;;;;;235.83;146.53;;;;;16.20;96559.00;;;;5439101;26;20279;-70
2024/04/19 09:32:02;;;;;;;232.17;147.50;;;;;16.80;96556.00;;;;5442749;26;20233;-70
2024/04/19 09:34:53;;;;;;;243.80;154.43;;;;;16.80;96558.00;;;;5447280;26;20785;-70
2024/04/19 09:37:43;;;;;;;252.27;162.60;;;;;16.70;96557.00;;;;5437414;26;20309;-70
2024/04/19 09:40:36;;;;;;;248.03;157.33;;;;;16.80;96559.00;;;;5435393;26;20304;-70
2024/04/19 09:43:28;;;;;;;250.23;162.00;;;;;16.70;96565.00;;;;5438339;26;20286;-69
2024/04/19 09:46:30;;;;;;;247.17;160.87;;;;;16.20;96548.00;;;;5428899;26;20830;-70
2024/04/19 09:49:22;;;;;;;255.33;161.53;;;;;16.20;96541.00;;;;5434402;26;20282;-70
2024/04/19 09:52:20;;;;;;;253.87;162.90;;;;;16.20;96540.00;;;;5443056;26;20259;-70
2024/04/19 09:55:13;;;;;;;259.50;166.37;;;;;16.20;96544.00;;;;5447543;26;20233;-70
2024/04/19 09:58:05;;;;;;;265.13;163.47;;;;;16.10;96539.00;;;;5440912;26;20707;-70
2024/04/19 10:00:55;;;;;;;287.37;162.30;;;;;16.30;96538.00;;;;5439708;26;20283;-70
2024/04/19 10:03:50;;;;;;;296.43;168.57;;;;;16.20;96543.00;;;;5439338;26;20267;-70
2024/04/19 10:06:41;;;;;;;311.03;164.87;;;;;15.90;96534.00;;;;5446619;26;20241;-70
2024/04/19 10:09:33;;;;;;;379.33;162.70;;;;;15.90;96527.00;;;;5434611;26;20274;-70
2024/04/19 10:12:24;;;;;;;393.53;173.43;;;;;15.50;96518.00;;;;5459996;21;20923;-70
2024/04/19 10:15:15;;;;;;;361.03;163.47;;;;;13.80;96510.00;;;;5452557;26;20229;-70
2024/04/19 10:18:07;;;;;;;378.17;154.37;;;;;14.80;96513.00;;;;5462990;26;20270;-69
2024/04/19 10:21:00;;;;;;;331.10;149.47;;;;;14.70;96504.00;;;;5466132;26;20790;-70
2024/04/19 10:23:51;;;;;;;262.23;150.53;;;;;14.70;96506.00;;;;5453148;26;20624;-69
2024/04/19 10:26:42;;;;;;;256.50;152.73;;;;;14.50;96504.00;;;;5450271;26;20233;-69
2024/04/19 10:29:33;;;;;;;241.80;145.40;;;;;15.00;96500.00;;;;5456230;26;20224;-69
2024/04/19 10:32:24;;;;;;;223.07;140.23;;;;;15.10;96496.00;;;;5451432;26;20338;-69
2024/04/19 10:35:15;;;;;;;211.57;137.47;;;;;15.10;96491.00;;;;5460060;26;20224;-69
2024/04/19 10:38:09;;;;;;;214.63;143.07;;;;;15.30;96483.00;;;;5447907;26;20342;-68
2024/04/19 10:41:00;;;;;;;220.10;138.97;;;;;15.50;96471.00;;;;5449984;26;20228;-70
2024/04/19 10:43:52;;;;;;;219.07;140.00;;;;;16.00;96463.00;;;;5457312;26;20644;-70
2024/04/19 10:46:44;;;;;;;223.10;148.00;;;;;16.50;96472.00;;;;5449034;26;20225;-70
2024/04/19 10:49:35;;;;;;;226.20;149.43;;;;;16.60;96467.00;;;;5452998;26;20232;-70
2024/04/19 10:52:25;;;;;;;218.97;145.67;;;;;16.40;96462.00;;;;5456120;26;20307;-70
2024/04/19 10:55:19;;;;;;;220.17;150.33;;;;;16.90;96445.00;;;;5459756;26;20288;-70
2024/04/19 10:58:10;;;;;;;209.93;153.03;;;;;16.90;96439.00;;;;5452317;26;20706;-70
2024/04/19 11:01:02;;;;;;;214.27;154.73;;;;;17.10;96449.00;;;;5448901;26;20229;-70
2024/04/19 11:03:53;;;;;;;210.37;160.23;;;;;15.90;96435.00;;;;5461273;26;20288;-70
2024/04/19 11:06:44;;;;;;;205.47;159.33;;;;;15.80;96436.00;;;;5453209;26;20254;-70
2024/04/19 11:09:35;;;;;;;197.83;157.27;;;;;16.30;96423.00;;;;5444388;26;20284;-70
2024/04/19 11:12:29;;;;;;;179.03;154.43;;;;;16.60;96419.00;;;;5454654;26;20829;-70
2024/04/19 11:15:20;;;;;;;186.60;154.30;;;;;16.70;96404.00;;;;5449833;26;20225;-70
2024/04/19 11:18:11;;;;;;;180.33;153.03;;;;;16.60;96403.00;;;;5449021;26;20312;-70
2024/04/19 11:21:02;;;;;;;181.60;155.17;;;;;14.80;96408.00;;;;5452283;26;20910;-70
2024/04/19 11:23:54;;;;;;;175.33;152.20;;;;;13.90;96400.00;;;;5449596;26;20344;-70
2024/04/19 11:26:46;;;;;;;177.00;151.10;;;;;15.30;96403.00;;;;5451958;26;20228;-71
2024/04/19 11:29:40;;;;;;;175.17;148.03;;;;;15.40;96396.00;;;;5451201;26;20287;-71
2024/04/19 11:32:32;;;;;;;163.67;143.70;;;;;15.40;96390.00;;;;5446204;26;20232;-70
2024/04/19 11:35:23;;;;;;;159.20;138.60;;;;;15.80;96393.00;;;;5445531;26;20236;-70
2024/04/19 11:38:17;;;;;;;153.37;136.80;;;;;16.00;96391.00;;;;5448729;26;20308;-71
2024/04/19 11:41:08;;;;;;;163.83;144.20;;;;;15.70;96380.00;;;;5447817;26;20292;-71
2024/04/19 11:44:02;;;;;;;152.27;135.57;;;;;16.40;96370.00;;;;5448900;26;20233;-70
2024/04/19 11:46:55;;;;;;;162.87;145.10;;;;;17.10;96382.00;;;;5448088;26;20278;-70
2024/04/19 11:49:47;;;;;;;174.57;152.00;;;;;16.30;96376.00;;;;5451124;26;20761;-70
2024/04/19 11:52:38;;;;;;;173.67;152.50;;;;;16.70;96373.00;;;;5448262;26;20237;-71
2024/04/19 11:55:29;;;;;;;166.90;147.93;;;;;17.20;96358.00;;;;5454626;26;20225;-70
2024/04/19 11:58:20;;;;;;;392.98;349.08;;;;;16.60;96354.00;;;;5439617;26;20356;-71
2024/04/19 12:01:11;;;;;;;234.10;210.57;;;;;17.20;96325.00;;;;5446577;26;20224;-70
2024/04/19 12:04:04;;;;;;;217.73;194.83;;;;;18.30;96326.00;;;;5463916;26;20245;-70
2024/04/19 12:06:55;;;;;;;219.87;196.77;;;;;18.10;96321.00;;;;5463195;26;20639;-71
2024/04/19 12:09:47;;;;;;;224.53;200.73;;;;;18.70;96338.00;;;;5453731;26;20283;-68
2024/04/19 12:12:38;;;;;;;229.90;206.10;;;;;18.70;96304.00;;;;5448854;26;20233;-68
2024/04/19 12:15:40;;;;;;;234.57;210.23;;;;;18.40;96288.00;;;;5452981;26;20294;-68
2024/04/19 12:18:32;;;;;;;232.23;208.70;;;;;18.90;96305.00;;;;5451131;26;20237;-68
2024/04/19 12:21:26;;;;;;;241.23;217.03;;;;;19.00;96294.00;;;;5452204;26;20233;-68
2024/04/19 12:24:16;;;;;;;243.67;219.30;;;;;18.80;96285.00;;;;5450783;26;20821;-68
2024/04/19 12:27:08;;;;;;;248.20;223.67;;;;;18.20;96299.00;;;;5461116;26;20275;-68
2024/04/19 12:29:59;;;;;;;241.67;218.00;;;;;18.20;96303.00;;;;5454118;26;20267;-68
2024/04/19 12:32:50;;;;;;;245.53;221.07;;;;;18.50;96287.00;;;;5453422;26;20292;-68
2024/04/19 12:35:40;;;;;;;236.53;212.90;;;;;18.10;96283.00;;;;5446573;26;20228;-68
2024/04/19 12:38:34;;;;;;;232.63;209.40;;;;;18.40;96279.00;;;;5450910;26;20225;-67
2024/04/19 12:41:25;;;;;;;234.33;210.57;;;;;18.60;96276.00;;;;5451787;26;20300;-70
2024/04/19 12:44:16;;;;;;;240.63;216.30;;;;;18.30;96264.00;;;;5451713;26;20974;-70
2024/04/19 12:47:07;;;;;;;230.40;207.03;;;;;18.70;96259.00;;;;5454950;26;20233;-70
2024/04/19 12:49:58;;;;;;;239.47;215.13;;;;;18.90;96249.00;;;;5463630;26;20308;-70
2024/04/19 12:52:49;;;;;;;250.33;224.93;;;;;18.80;96264.00;;;;5451680;26;20302;-70
2024/04/19 12:55:42;;;;;;;250.90;226.50;;;;;14.60;96245.00;;;;5446222;26;20662;-70
2024/04/19 12:58:33;;;;;;;210.30;191.30;;;;;14.20;96233.00;;;;5449880;26;20278;-71
2024/04/19 13:01:24;;;;;;;190.83;173.07;;;;;14.30;96240.00;;;;5451534;26;20337;-70
2024/04/19 13:04:15;;;;;;;174.20;157.33;;;;;14.60;96227.00;;;;5452207;26;20232;-69
2024/04/19 13:07:06;;;;;;;161.03;145.50;;;;;14.60;96188.00;;;;5464596;26;20290;-69
2024/04/19 13:09:57;;;;;;;163.33;146.80;;;;;15.60;96217.00;;;;5462815;26;20224;-70
2024/04/19 13:12:51;;;;;;;154.97;139.33;;;;;15.30;96235.00;;;;5449273;26;20279;-69
2024/04/19 13:15:42;;;;;;;158.80;142.50;;;;;14.70;96222.00;;;;5450094;26;21052;-69
2024/04/19 13:18:33;;;;;;;150.93;135.63;;;;;14.60;96217.00;;;;5449893;26;20304;-69
2024/04/19 13:21:26;;;;;;;150.13;134.87;;;;;14.80;96208.00;;;;5455182;26;20225;-69
2024/04/19 13:24:19;;;;;;;145.97;131.53;;;;;15.70;96212.00;;;;5455117;26;20279;-69
2024/04/19 13:27:10;;;;;;;142.83;128.60;;;;;15.10;96207.00;;;;5467386;26;20292;-69
2024/04/19 13:30:04;;;;;;;145.17;130.97;;;;;14.70;96195.00;;;;5463629;26;20229;-68
2024/04/19 13:32:56;;;;;;;143.87;129.43;;;;;14.30;96188.00;;;;5462748;26;20277;-69
2024/04/19 13:35:47;;;;;;;143.07;128.40;;;;;15.40;96183.00;;;;5452957;26;20313;-68
2024/04/19 13:38:38;;;;;;;138.73;125.43;;;;;15.70;96175.00;;;;5453451;26;20598;-69
2024/04/19 13:41:29;;;;;;;139.73;126.77;;;;;16.40;96178.00;;;;5448487;26;20283;-69
2024/04/19 13:44:19;;;;;;;137.90;124.40;;;;;16.40;96176.00;;;;5459044;26;20256;-68
2024/04/19 13:47:13;;;;;;;139.23;125.90;;;;;15.80;96170.00;;;;5450751;26;20232;-68
2024/04/19 13:50:06;;;;;;;142.20;128.53;;;;;16.20;96175.00;;;;5461939;26;20228;-68
2024/04/19 13:52:57;;;;;;;142.87;129.33;;;;;16.30;96160.00;;;;5449774;26;20299;-68
2024/04/19 13:55:47;;;;;;;148.30;134.60;;;;;16.50;96158.00;;;;5449572;26;20813;-68